createdAt,value
2018-03-17T00:00:05.569Z,70.52
2018-03-17T00:02:32.962Z,71.73
2018-03-17T00:05:00.475Z,71.91
2018-03-17T00:07:27.858Z,72.31
2018-03-17T00:09:55.281Z,71.27
2018-03-17T00:12:22.665Z,72.69
2018-03-17T00:14:50.096Z,70.17
2018-03-17T00:17:17.467Z,71.61
2018-03-17T00:19:44.877Z,72.47
2018-03-17T00:22:12.962Z,70.71
2018-03-17T00:24:40.356Z,72.69
2018-03-17T00:27:07.740Z,71.48
2018-03-17T00:29:35.158Z,72.71
2018-03-17T00:32:02.542Z,75.09
2018-03-17T00:34:29.945Z,72.24
2018-03-17T00:36:57.397Z,72.46
2018-03-17T00:39:24.789Z,72.04
2018-03-17T00:41:52.173Z,72.96
2018-03-17T00:44:19.581Z,73.71
2018-03-17T00:46:47.024Z,72.10
2018-03-17T00:49:14.423Z,70.99
2018-03-17T00:51:42.889Z,72.93
2018-03-17T00:54:10.361Z,73.34
2018-03-17T00:56:37.764Z,72.87
2018-03-17T00:59:05.267Z,72.00
2018-03-17T01:01:32.673Z,72.43
2018-03-17T01:04:00.155Z,70.98
2018-03-17T01:06:27.500Z,72.06
2018-03-17T01:08:54.952Z,71.32
2018-03-17T01:11:22.350Z,71.15
2018-03-17T01:13:49.734Z,71.93
2018-03-17T01:16:17.136Z,71.19
2018-03-17T01:18:44.525Z,72.26
2018-03-17T01:21:12.990Z,73.81
2018-03-17T01:23:40.372Z,73.37
2018-03-17T01:26:07.821Z,73.02
2018-03-17T01:28:35.224Z,71.86
2018-03-17T01:31:02.616Z,73.22
2018-03-17T01:33:30.001Z,74.28
2018-03-17T01:35:57.401Z,73.55
2018-03-17T01:38:24.778Z,73.77
2018-03-17T01:40:52.165Z,75.28
2018-03-17T01:43:19.553Z,72.80
2018-03-17T01:45:46.944Z,71.75
2018-03-17T01:48:14.469Z,72.42
2018-03-17T01:50:42.022Z,73.05
2018-03-17T01:53:09.614Z,71.26
2018-03-17T01:55:36.996Z,73.99
2018-03-17T01:58:04.497Z,73.03
2018-03-17T02:00:31.913Z,71.69
2018-03-17T02:02:59.311Z,72.64
2018-03-17T02:05:26.698Z,72.28
2018-03-17T02:07:54.101Z,72.57
2018-03-17T02:10:21.529Z,71.88
2018-03-17T02:12:48.920Z,72.35
2018-03-17T02:15:16.368Z,72.39
2018-03-17T02:17:43.814Z,73.07
2018-03-17T02:20:11.231Z,73.49
2018-03-17T02:22:38.710Z,73.67
2018-03-17T02:25:06.118Z,73.83
2018-03-17T02:27:33.535Z,74.02
2018-03-17T02:30:00.979Z,72.54
2018-03-17T02:32:28.412Z,72.31
2018-03-17T02:34:55.819Z,74.31
2018-03-17T02:37:23.363Z,72.83
2018-03-17T02:39:50.814Z,73.51
2018-03-17T02:42:18.208Z,72.87
2018-03-17T02:44:45.613Z,73.09
2018-03-17T02:47:13.408Z,72.10
2018-03-17T02:49:40.832Z,72.70
2018-03-17T02:52:08.341Z,71.70
2018-03-17T02:54:35.847Z,71.64
2018-03-17T02:57:05.997Z,72.23
2018-03-17T02:59:35.762Z,71.82
2018-03-17T03:02:03.210Z,72.55
2018-03-17T03:04:30.613Z,72.49
2018-03-17T03:06:58.022Z,73.26
2018-03-17T03:09:25.429Z,72.05
2018-03-17T03:11:52.851Z,72.35
2018-03-17T03:14:20.253Z,71.58
2018-03-17T03:16:49.878Z,71.86
2018-03-17T03:19:17.825Z,72.38
2018-03-17T03:21:45.221Z,71.62
2018-03-17T03:24:13.530Z,73.13
2018-03-17T03:26:41.007Z,71.97
2018-03-17T03:29:08.408Z,73.09
2018-03-17T03:31:35.792Z,72.75
2018-03-17T03:34:03.221Z,72.45
2018-03-17T03:36:30.634Z,73.01
2018-03-17T03:38:58.249Z,72.39
2018-03-17T03:41:25.685Z,72.64
2018-03-17T03:43:53.085Z,71.66
2018-03-17T03:46:20.468Z,72.10
2018-03-17T03:48:47.868Z,72.94
2018-03-17T03:51:17.854Z,71.51
2018-03-17T03:53:45.343Z,70.97
2018-03-17T03:56:13.710Z,71.71
2018-03-17T03:58:41.101Z,71.11
2018-03-17T04:01:08.485Z,71.45
2018-03-17T04:03:36.966Z,71.02
2018-03-17T04:06:04.396Z,72.12
2018-03-17T04:08:31.801Z,70.62
2018-03-17T04:10:59.188Z,71.05
2018-03-17T04:13:26.596Z,70.31
2018-03-17T04:15:53.972Z,71.62
2018-03-17T04:18:21.416Z,70.77
2018-03-17T04:20:48.803Z,71.12
2018-03-17T04:23:16.193Z,71.35
2018-03-17T04:25:45.226Z,70.10
2018-03-17T04:28:12.629Z,70.47
2018-03-17T04:30:40.024Z,69.86
2018-03-17T04:33:08.344Z,71.00
2018-03-17T04:35:35.761Z,71.10
2018-03-17T04:38:03.173Z,70.79
2018-03-17T04:40:30.571Z,69.76
2018-03-17T04:42:57.966Z,69.00
2018-03-17T04:45:25.364Z,69.93
2018-03-17T04:47:52.889Z,70.08
2018-03-17T04:50:20.333Z,70.35
2018-03-17T04:52:47.708Z,69.27
2018-03-17T04:55:18.452Z,69.99
2018-03-17T04:57:45.849Z,70.15
2018-03-17T05:00:13.237Z,70.46
2018-03-17T05:02:40.734Z,70.12
2018-03-17T05:05:08.131Z,70.97
2018-03-17T05:07:35.590Z,70.91
2018-03-17T05:10:02.981Z,70.13
2018-03-17T05:12:30.389Z,69.38
2018-03-17T05:14:57.804Z,69.87
2018-03-17T05:17:25.241Z,70.41
2018-03-17T05:19:52.638Z,69.45
2018-03-17T05:22:20.053Z,69.23
2018-03-17T05:24:47.437Z,69.58
2018-03-17T05:27:15.647Z,68.36
2018-03-17T05:29:43.024Z,68.45
2018-03-17T05:32:10.421Z,69.18
2018-03-17T05:34:37.830Z,69.68
2018-03-17T05:37:05.227Z,68.77
2018-03-17T05:39:32.713Z,68.80
2018-03-17T05:42:00.240Z,68.72
2018-03-17T05:44:27.669Z,68.66
2018-03-17T05:46:55.084Z,67.75
2018-03-17T05:49:22.469Z,68.10
2018-03-17T05:51:49.865Z,69.01
2018-03-17T05:54:17.261Z,68.27
2018-03-17T05:56:44.737Z,68.64
2018-03-17T05:59:12.128Z,68.79
2018-03-17T06:01:39.521Z,68.44
2018-03-17T06:04:06.912Z,67.94
2018-03-17T06:06:35.338Z,68.29
2018-03-17T06:09:02.984Z,68.07
2018-03-17T06:11:30.376Z,68.03
2018-03-17T06:13:57.786Z,68.50
2018-03-17T06:16:25.168Z,67.18
2018-03-17T06:18:52.567Z,67.85
2018-03-17T06:21:19.960Z,66.76
2018-03-17T06:23:47.347Z,66.96
2018-03-17T06:26:14.724Z,67.22
2018-03-17T06:28:42.152Z,66.36
2018-03-17T06:31:09.538Z,66.58
2018-03-17T06:33:36.921Z,66.75
2018-03-17T06:36:04.327Z,66.77
2018-03-17T06:38:31.720Z,66.73
2018-03-17T06:40:59.149Z,66.99
2018-03-17T06:43:26.544Z,67.45
2018-03-17T06:45:53.950Z,64.85
2018-03-17T06:48:21.331Z,65.02
2018-03-17T06:50:48.765Z,65.47
2018-03-17T06:53:16.177Z,65.68
2018-03-17T06:55:45.189Z,66.27
2018-03-17T06:58:12.576Z,65.06
2018-03-17T07:00:39.979Z,65.75
2018-03-17T07:03:07.405Z,64.97
2018-03-17T07:05:34.793Z,66.09
2018-03-17T07:08:02.176Z,65.48
2018-03-17T07:10:30.573Z,65.64
2018-03-17T07:12:57.966Z,65.92
2018-03-17T07:15:25.347Z,65.64
2018-03-17T07:17:53.708Z,66.02
2018-03-17T07:20:21.423Z,65.34
2018-03-17T07:22:48.841Z,65.37
2018-03-17T07:25:16.259Z,65.33
2018-03-17T07:27:43.626Z,66.11
2018-03-17T07:30:11.007Z,65.50
2018-03-17T07:32:38.481Z,66.15
2018-03-17T07:35:05.872Z,66.19
2018-03-17T07:37:33.256Z,65.83
2018-03-17T07:40:00.641Z,65.29
2018-03-17T07:42:28.050Z,64.59
2018-03-17T07:44:55.422Z,65.19
2018-03-17T07:47:22.809Z,65.73
2018-03-17T07:49:50.232Z,64.73
2018-03-17T07:52:17.617Z,65.72
2018-03-17T07:54:44.997Z,65.69
2018-03-17T07:57:12.419Z,65.64
2018-03-17T07:59:39.794Z,64.88
2018-03-17T08:02:07.192Z,64.91
2018-03-17T08:04:34.582Z,64.92
2018-03-17T08:07:01.983Z,65.07
2018-03-17T08:09:29.382Z,65.13
2018-03-17T08:11:56.805Z,64.24
2018-03-17T08:14:24.259Z,64.10
2018-03-17T08:16:51.577Z,64.51
2018-03-17T08:19:19.322Z,64.82
2018-03-17T08:21:46.726Z,65.03
2018-03-17T08:24:19.169Z,64.16
2018-03-17T08:26:46.568Z,64.47
2018-03-17T08:29:13.977Z,62.79
2018-03-17T08:31:41.373Z,63.00
2018-03-17T08:34:08.796Z,62.75
2018-03-17T08:36:36.141Z,62.95
2018-03-17T08:39:03.541Z,63.58
2018-03-17T08:41:30.938Z,63.35
2018-03-17T08:43:58.340Z,62.66
2018-03-17T08:46:25.750Z,63.80
2018-03-17T08:48:53.145Z,62.06
2018-03-17T08:51:20.528Z,62.41
2018-03-17T08:53:47.960Z,63.23
2018-03-17T08:56:15.341Z,62.71
2018-03-17T08:58:42.777Z,61.57
2018-03-17T09:01:10.103Z,61.95
2018-03-17T09:03:37.509Z,61.77
2018-03-17T09:06:04.916Z,60.95
2018-03-17T09:08:32.398Z,61.48
2018-03-17T09:11:00.163Z,61.90
2018-03-17T09:13:27.541Z,62.49
2018-03-17T09:15:54.989Z,60.87
2018-03-17T09:18:22.491Z,61.83
2018-03-17T09:20:49.974Z,61.80
2018-03-17T09:23:17.364Z,60.42
2018-03-17T09:25:45.388Z,61.08
2018-03-17T09:28:12.794Z,61.38
2018-03-17T09:30:40.168Z,61.50
2018-03-17T09:33:07.555Z,60.28
2018-03-17T09:35:34.957Z,60.25
2018-03-17T09:38:02.363Z,59.43
2018-03-17T09:40:29.768Z,59.48
2018-03-17T09:42:57.177Z,60.28
2018-03-17T09:45:24.559Z,60.05
2018-03-17T09:47:52.048Z,60.47
2018-03-17T09:50:19.465Z,59.39
2018-03-17T09:52:46.865Z,59.59
2018-03-17T09:55:14.247Z,59.45
2018-03-17T09:57:41.681Z,58.98
2018-03-17T10:00:09.082Z,59.00
2018-03-17T10:02:36.476Z,59.07
2018-03-17T10:05:03.864Z,59.87
2018-03-17T10:07:31.257Z,59.42
2018-03-17T10:09:58.649Z,59.40
2018-03-17T10:12:26.063Z,59.11
2018-03-17T10:14:53.452Z,59.56
2018-03-17T10:17:20.841Z,59.34
2018-03-17T10:19:48.237Z,59.46
2018-03-17T10:22:15.703Z,60.50
2018-03-17T10:24:43.097Z,59.41
2018-03-17T10:27:10.472Z,59.28
2018-03-17T10:29:37.877Z,59.49
2018-03-17T10:32:05.280Z,59.55
2018-03-17T10:34:32.694Z,59.34
2018-03-17T10:37:00.073Z,59.96
2018-03-17T10:39:27.482Z,58.68
2018-03-17T10:41:54.872Z,59.36
2018-03-17T10:44:22.281Z,59.39
2018-03-17T10:46:49.670Z,59.32
2018-03-17T10:49:17.132Z,59.05
2018-03-17T10:51:44.454Z,57.95
2018-03-17T10:54:11.837Z,58.92
2018-03-17T10:56:39.245Z,58.75
2018-03-17T10:59:07.511Z,58.41
2018-03-17T11:01:40.563Z,59.15
2018-03-17T11:04:08.164Z,58.78
2018-03-17T11:06:35.629Z,59.38
2018-03-17T11:09:03.026Z,58.68
2018-03-17T11:11:30.436Z,58.70
2018-03-17T11:13:57.826Z,58.27
2018-03-17T11:16:25.289Z,58.29
2018-03-17T11:18:52.670Z,57.66
2018-03-17T11:21:20.234Z,58.26
2018-03-17T11:23:47.624Z,58.25
2018-03-17T11:26:15.003Z,58.24
2018-03-17T11:28:42.397Z,58.45
2018-03-17T11:31:09.914Z,57.57
2018-03-17T11:33:37.309Z,57.67
2018-03-17T11:36:04.712Z,57.05
2018-03-17T11:38:32.184Z,56.77
2018-03-17T11:40:59.550Z,57.81
2018-03-17T11:43:26.943Z,57.66
2018-03-17T11:45:54.398Z,57.04
2018-03-17T11:48:22.108Z,57.33
2018-03-17T11:50:49.571Z,56.80
2018-03-17T11:53:16.953Z,56.48
2018-03-17T11:55:44.335Z,56.92
2018-03-17T11:58:11.761Z,56.65
2018-03-17T12:00:39.161Z,56.48
2018-03-17T12:03:06.644Z,55.33
2018-03-17T12:05:35.020Z,55.78
2018-03-17T12:08:02.422Z,56.10
2018-03-17T12:10:29.823Z,55.67
2018-03-17T12:12:57.207Z,55.22
2018-03-17T12:15:24.663Z,56.14
2018-03-17T12:17:52.106Z,55.80
2018-03-17T12:20:19.498Z,55.47
2018-03-17T12:22:47.010Z,54.71
2018-03-17T12:25:14.409Z,55.67
2018-03-17T12:27:41.849Z,55.18
2018-03-17T12:30:09.328Z,55.50
2018-03-17T12:32:36.712Z,55.91
2018-03-17T12:35:04.128Z,54.34
2018-03-17T12:37:31.523Z,55.56
2018-03-17T12:39:58.905Z,55.03
2018-03-17T12:42:26.339Z,55.08
2018-03-17T12:44:53.824Z,55.23
2018-03-17T12:47:21.214Z,55.04
2018-03-17T12:49:52.197Z,55.26
2018-03-17T12:52:19.581Z,55.01
2018-03-17T12:54:47.216Z,54.49
2018-03-17T12:57:14.619Z,54.71
2018-03-17T12:59:42.139Z,54.27
2018-03-17T13:02:09.534Z,54.34
2018-03-17T13:04:36.953Z,54.77
2018-03-17T13:07:04.358Z,54.86
2018-03-17T13:09:31.761Z,53.80
2018-03-17T13:11:59.141Z,53.92
2018-03-17T13:14:26.613Z,53.99
2018-03-17T13:16:54.005Z,53.75
2018-03-17T13:19:30.191Z,54.40
2018-03-17T13:21:57.580Z,53.86
2018-03-17T13:24:25.001Z,53.57
2018-03-17T13:27:04.181Z,53.26
2018-03-17T13:29:31.601Z,54.55
2018-03-17T13:32:04.438Z,53.68
2018-03-17T13:34:40.157Z,53.54
2018-03-17T13:37:19.799Z,53.35
2018-03-17T13:39:47.214Z,52.71
2018-03-17T13:42:14.627Z,52.94
2018-03-17T13:44:42.162Z,53.45
2018-03-17T13:47:09.600Z,52.66
2018-03-17T13:49:36.978Z,52.32
2018-03-17T13:52:04.383Z,53.10
2018-03-17T13:54:31.810Z,52.89
2018-03-17T13:56:59.274Z,53.06
2018-03-17T13:59:26.666Z,52.57
2018-03-17T14:01:54.078Z,52.89
2018-03-17T14:04:21.498Z,52.29
2018-03-17T14:06:48.897Z,51.70
2018-03-17T14:09:16.852Z,51.41
2018-03-17T14:11:44.276Z,51.42
2018-03-17T14:14:11.659Z,52.43
2018-03-17T14:16:39.065Z,52.51
2018-03-17T14:19:06.513Z,52.14
2018-03-17T14:21:33.969Z,51.86
2018-03-17T14:24:01.344Z,52.20
2018-03-17T14:26:28.749Z,52.17
2018-03-17T14:28:56.142Z,51.60
2018-03-17T14:31:23.570Z,52.90
2018-03-17T14:33:51.206Z,52.34
2018-03-17T14:36:18.657Z,51.50
2018-03-17T14:38:47.000Z,52.38
2018-03-17T14:41:14.518Z,51.97
2018-03-17T14:43:41.906Z,51.77
2018-03-17T14:46:09.439Z,52.01
2018-03-17T14:48:36.861Z,52.66
2018-03-17T14:51:04.245Z,51.71
2018-03-17T14:53:31.647Z,52.05
2018-03-17T14:55:59.045Z,52.30
2018-03-17T14:58:26.553Z,52.52
2018-03-17T15:00:53.940Z,52.72
2018-03-17T15:03:21.326Z,52.51
2018-03-17T15:05:48.755Z,52.50
2018-03-17T15:08:16.135Z,52.64
2018-03-17T15:10:43.513Z,53.35
2018-03-17T15:13:10.926Z,52.98
2018-03-17T15:15:38.324Z,52.28
2018-03-17T15:18:05.788Z,52.75
2018-03-17T15:20:33.208Z,52.51
2018-03-17T15:23:00.650Z,52.17
2018-03-17T15:25:28.053Z,52.58
2018-03-17T15:27:55.555Z,52.14
2018-03-17T15:30:22.940Z,52.64
2018-03-17T15:32:50.352Z,52.50
2018-03-17T15:35:17.954Z,52.41
2018-03-17T15:37:46.336Z,52.92
2018-03-17T15:40:13.745Z,52.66
2018-03-17T15:42:41.120Z,53.19
2018-03-17T15:45:08.640Z,52.94
2018-03-17T15:47:36.032Z,52.64
2018-03-17T15:50:03.540Z,52.35
2018-03-17T15:52:30.926Z,52.41
2018-03-17T15:54:58.299Z,52.50
2018-03-17T15:57:25.844Z,52.52
2018-03-17T15:59:53.222Z,52.53
2018-03-17T16:02:20.635Z,52.43
2018-03-17T16:04:48.133Z,52.37
2018-03-17T16:07:15.538Z,53.21
2018-03-17T16:09:42.923Z,52.60
2018-03-17T16:14:44.102Z,52.63
2018-03-17T16:17:11.609Z,52.89
2018-03-17T16:19:38.980Z,52.69
2018-03-17T16:22:06.372Z,53.59
2018-03-17T16:24:33.756Z,52.71
2018-03-17T16:27:01.214Z,53.22
2018-03-17T16:29:28.618Z,52.96
2018-03-17T16:31:56.097Z,52.83
2018-03-17T16:34:23.510Z,52.67
2018-03-17T16:36:50.903Z,53.20
2018-03-17T16:39:18.319Z,53.18
2018-03-17T16:41:45.689Z,52.75
2018-03-17T16:44:13.075Z,53.15
2018-03-17T16:46:40.448Z,52.98
2018-03-17T16:49:07.924Z,52.14
2018-03-17T16:51:35.394Z,52.22
2018-03-17T16:54:02.803Z,52.64
2018-03-17T16:56:30.212Z,53.01
2018-03-17T16:58:57.606Z,52.41
2018-03-17T17:01:25.009Z,52.80
2018-03-17T17:03:52.502Z,52.76
2018-03-17T17:06:19.976Z,52.75
2018-03-17T17:08:47.633Z,52.50
2018-03-17T17:11:15.049Z,51.96
2018-03-17T17:13:42.442Z,52.65
2018-03-17T17:16:09.824Z,52.48
2018-03-17T17:18:37.663Z,53.07
2018-03-17T17:21:05.163Z,52.57
2018-03-17T17:23:32.553Z,53.13
2018-03-17T17:25:59.946Z,52.24
2018-03-17T17:28:27.470Z,52.37
2018-03-17T17:30:55.886Z,52.69
2018-03-17T17:33:23.269Z,52.87
2018-03-17T17:35:50.652Z,52.68
2018-03-17T17:38:18.041Z,53.39
2018-03-17T17:40:45.520Z,53.14
2018-03-17T17:43:12.913Z,52.69
2018-03-17T17:45:40.297Z,53.19
2018-03-17T17:48:07.684Z,52.86
2018-03-17T17:50:35.088Z,52.70
2018-03-17T17:55:52.370Z,52.44
2018-03-17T17:58:20.013Z,52.16
2018-03-17T18:00:47.793Z,52.38
2018-03-17T18:03:15.226Z,51.96
2018-03-17T18:05:42.655Z,52.41
2018-03-17T18:08:10.075Z,51.90
2018-03-17T18:10:37.456Z,52.36
2018-03-17T18:13:04.879Z,52.36
2018-03-17T18:15:32.254Z,51.95
2018-03-17T18:17:59.662Z,51.86
2018-03-17T18:20:27.064Z,52.81
2018-03-17T18:22:54.479Z,52.23
2018-03-17T18:25:21.864Z,52.49
2018-03-17T18:27:49.286Z,52.13
2018-03-17T18:30:16.709Z,52.24
2018-03-17T18:32:44.206Z,52.34
2018-03-17T18:35:11.613Z,52.52
2018-03-17T18:37:39.045Z,52.50
2018-03-17T18:40:06.449Z,53.35
2018-03-17T18:42:33.855Z,52.73
2018-03-17T18:45:01.337Z,52.90
2018-03-17T18:47:29.500Z,52.19
2018-03-17T18:49:56.940Z,52.07
2018-03-17T18:52:24.327Z,52.55
2018-03-17T18:54:51.714Z,52.63
2018-03-17T18:57:19.136Z,52.38
2018-03-17T18:59:46.524Z,52.31
2018-03-17T19:02:13.915Z,52.30
2018-03-17T19:04:41.305Z,52.65
2018-03-17T19:07:08.879Z,52.22
2018-03-17T19:09:36.328Z,52.56
2018-03-17T19:12:03.700Z,52.03
2018-03-17T19:14:31.309Z,51.52
2018-03-17T19:16:58.727Z,52.03
2018-03-17T19:19:26.131Z,52.04
2018-03-17T19:21:53.523Z,51.69
2018-03-17T19:24:21.022Z,51.52
2018-03-17T19:26:48.736Z,51.90
2018-03-17T19:29:16.099Z,51.92
2018-03-17T19:31:43.485Z,52.54
2018-03-17T19:34:10.874Z,52.24
2018-03-17T19:36:38.278Z,51.74
2018-03-17T19:39:05.660Z,52.61
2018-03-17T19:41:33.056Z,52.30
2018-03-17T19:44:00.450Z,52.65
2018-03-17T19:46:27.977Z,51.93
2018-03-17T19:48:55.348Z,52.01
2018-03-17T19:51:22.785Z,52.19
2018-03-17T19:53:50.183Z,52.30
2018-03-17T19:56:18.359Z,51.79
2018-03-17T19:58:45.723Z,52.43
2018-03-17T20:01:13.132Z,52.43
2018-03-17T20:03:40.518Z,51.79
2018-03-17T20:06:07.951Z,51.92
2018-03-17T20:08:35.336Z,52.02
2018-03-17T20:11:02.740Z,51.86
2018-03-17T20:13:30.161Z,51.27
2018-03-17T20:15:57.547Z,51.47
2018-03-17T20:18:24.946Z,52.02
2018-03-17T20:20:52.342Z,51.71
2018-03-17T20:23:19.740Z,51.82
2018-03-17T20:25:47.289Z,52.25
2018-03-17T20:28:14.698Z,52.23
2018-03-17T20:30:42.099Z,52.15
2018-03-17T20:33:09.497Z,51.71
2018-03-17T20:35:36.868Z,51.50
2018-03-17T20:38:04.272Z,51.96
2018-03-17T20:40:31.671Z,52.18
2018-03-17T20:43:01.011Z,52.00
2018-03-17T20:45:28.414Z,52.02
2018-03-17T20:47:55.801Z,52.14
2018-03-17T20:50:24.004Z,51.61
2018-03-17T20:52:53.491Z,51.83
2018-03-17T20:55:20.906Z,51.57
2018-03-17T20:57:48.720Z,51.88
2018-03-17T21:00:16.437Z,52.34
2018-03-17T21:02:43.849Z,51.89
2018-03-17T21:05:11.223Z,50.70
2018-03-17T21:07:38.631Z,51.34
2018-03-17T21:10:06.029Z,50.94
2018-03-17T21:12:33.413Z,51.73
2018-03-17T21:15:00.797Z,51.15
2018-03-17T21:17:28.204Z,51.27
2018-03-17T21:19:55.569Z,51.27
2018-03-17T21:22:22.956Z,51.25
2018-03-17T21:24:50.340Z,51.19
2018-03-17T21:27:17.736Z,51.40
2018-03-17T21:29:45.169Z,51.27
2018-03-17T21:32:12.562Z,51.95
2018-03-17T21:34:39.941Z,52.12
2018-03-17T21:37:07.341Z,52.04
2018-03-17T21:39:34.760Z,51.85
2018-03-17T21:42:02.203Z,51.39
2018-03-17T21:44:29.625Z,51.56
2018-03-17T21:46:57.052Z,52.35
2018-03-17T21:49:24.491Z,51.75
2018-03-17T21:51:51.921Z,51.96
2018-03-17T21:54:19.427Z,51.30
2018-03-17T21:56:46.819Z,52.00
2018-03-17T21:59:14.206Z,51.70
2018-03-17T22:01:41.607Z,51.49
2018-03-17T22:04:09.018Z,52.20
2018-03-17T22:06:36.447Z,51.16
2018-03-17T22:09:03.804Z,52.12
2018-03-17T22:11:31.217Z,51.68
2018-03-17T22:13:58.619Z,51.70
2018-03-17T22:16:26.053Z,51.63
2018-03-17T22:18:53.435Z,51.31
2018-03-17T22:21:20.852Z,51.36
2018-03-17T22:23:49.188Z,51.60
2018-03-17T22:26:16.744Z,51.71
2018-03-17T22:28:44.203Z,51.65
2018-03-17T22:31:11.587Z,51.90
2018-03-17T22:33:38.992Z,52.31
2018-03-17T22:36:06.453Z,54.24
2018-03-17T22:38:33.956Z,54.22
2018-03-17T22:41:01.357Z,56.06
2018-03-17T22:43:28.767Z,59.00
2018-03-17T22:45:57.055Z,60.94
2018-03-17T22:48:24.744Z,62.93
2018-03-17T22:50:52.151Z,67.21
2018-03-17T22:53:24.885Z,65.36
2018-03-17T22:55:52.270Z,66.83
2018-03-17T22:58:19.673Z,65.97
2018-03-17T23:00:47.071Z,66.30
2018-03-17T23:03:14.533Z,66.05
2018-03-17T23:05:41.924Z,67.39
2018-03-17T23:08:09.930Z,68.50
2018-03-17T23:10:37.315Z,68.07
2018-03-17T23:13:04.765Z,70.15
2018-03-17T23:15:32.165Z,67.78
2018-03-17T23:17:59.569Z,67.79
2018-03-17T23:20:26.953Z,67.41
2018-03-17T23:22:54.356Z,67.49
2018-03-17T23:25:21.734Z,66.64
2018-03-17T23:27:49.637Z,68.52
2018-03-17T23:30:17.047Z,66.74
2018-03-17T23:32:44.471Z,67.52
2018-03-17T23:35:11.884Z,67.54
2018-03-17T23:37:39.296Z,67.58
2018-03-17T23:40:06.743Z,68.11
2018-03-17T23:42:34.126Z,67.67
2018-03-17T23:45:01.511Z,67.24
2018-03-17T23:47:28.958Z,68.73
2018-03-17T23:49:56.481Z,67.72
2018-03-17T23:52:23.865Z,68.25
2018-03-17T23:54:51.244Z,70.59
2018-03-17T23:57:23.655Z,74.57
2018-03-17T23:59:55.066Z,71.59
